sensor_id;sensor_type;location;lat;lon;timestamp;pressure;altitude;pressure_sealevel;temperature;humidity
42601;BME280;28229;48.856;9.088;2024-03-25T00:01:38;97189.50;;;4.51;94.80
42601;BME280;28229;48.856;9.088;2024-03-25T00:04:05;97199.69;;;4.46;95.05
42601;BME280;28229;48.856;9.088;2024-03-25T00:06:31;97190.06;;;4.47;95.13
42601;BME280;28229;48.856;9.088;2024-03-25T00:09:00;97196.28;;;4.52;95.30
42601;BME280;28229;48.856;9.088;2024-03-25T00:11:26;97191.50;;;4.49;95.53
42601;BME280;28229;48.856;9.088;2024-03-25T00:13:52;97196.47;;;4.44;95.77
42601;BME280;28229;48.856;9.088;2024-03-25T00:16:18;97195.88;;;4.49;95.30
42601;BME280;28229;48.856;9.088;2024-03-25T00:18:44;97193.88;;;4.44;94.87
42601;BME280;28229;48.856;9.088;2024-03-25T00:21:10;97190.09;;;4.53;94.64
42601;BME280;28229;48.856;9.088;2024-03-25T00:23:36;97195.50;;;4.52;94.58
42601;BME280;28229;48.856;9.088;2024-03-25T00:26:03;97190.25;;;4.45;94.83
42601;BME280;28229;48.856;9.088;2024-03-25T00:28:29;97187.44;;;4.40;95.28
42601;BME280;28229;48.856;9.088;2024-03-25T00:30:55;97187.06;;;4.43;95.27
42601;BME280;28229;48.856;9.088;2024-03-25T00:33:21;97182.84;;;4.35;95.71
42601;BME280;28229;48.856;9.088;2024-03-25T00:35:48;97186.00;;;4.31;95.74
42601;BME280;28229;48.856;9.088;2024-03-25T00:38:17;97178.16;;;4.24;95.83
42601;BME280;28229;48.856;9.088;2024-03-25T00:40:44;97184.59;;;4.22;95.83
42601;BME280;28229;48.856;9.088;2024-03-25T00:43:12;97183.38;;;4.24;96.04
42601;BME280;28229;48.856;9.088;2024-03-25T00:45:38;97186.34;;;4.14;96.59
42601;BME280;28229;48.856;9.088;2024-03-25T00:48:05;97186.78;;;4.18;96.48
42601;BME280;28229;48.856;9.088;2024-03-25T00:50:31;97186.19;;;4.23;96.28
42601;BME280;28229;48.856;9.088;2024-03-25T00:52:57;97191.00;;;4.19;96.51
42601;BME280;28229;48.856;9.088;2024-03-25T00:55:23;97194.97;;;4.15;96.66
42601;BME280;28229;48.856;9.088;2024-03-25T00:57:50;97188.59;;;4.17;96.66
42601;BME280;28229;48.856;9.088;2024-03-25T01:00:17;97190.16;;;4.12;97.48
42601;BME280;28229;48.856;9.088;2024-03-25T01:02:43;97189.16;;;4.13;97.15
42601;BME280;28229;48.856;9.088;2024-03-25T01:05:09;97187.06;;;3.95;98.74
42601;BME280;28229;48.856;9.088;2024-03-25T01:07:36;97180.09;;;4.02;98.16
42601;BME280;28229;48.856;9.088;2024-03-25T01:10:02;97173.91;;;4.03;98.00
42601;BME280;28229;48.856;9.088;2024-03-25T01:12:28;97177.72;;;4.07;98.06
42601;BME280;28229;48.856;9.088;2024-03-25T01:14:54;97173.72;;;4.11;98.21
42601;BME280;28229;48.856;9.088;2024-03-25T01:17:20;97171.72;;;4.13;98.07
42601;BME280;28229;48.856;9.088;2024-03-25T01:19:47;97166.50;;;4.07;98.51
42601;BME280;28229;48.856;9.088;2024-03-25T01:22:13;97158.91;;;4.05;98.89
42601;BME280;28229;48.856;9.088;2024-03-25T01:24:40;97169.34;;;4.12;98.72
42601;BME280;28229;48.856;9.088;2024-03-25T01:27:08;97161.91;;;4.09;98.59
42601;BME280;28229;48.856;9.088;2024-03-25T01:29:34;97162.09;;;4.07;97.97
42601;BME280;28229;48.856;9.088;2024-03-25T01:32:00;97150.47;;;4.03;97.64
42601;BME280;28229;48.856;9.088;2024-03-25T01:34:28;97155.69;;;4.03;97.53
42601;BME280;28229;48.856;9.088;2024-03-25T01:36:54;97160.91;;;4.10;96.94
42601;BME280;28229;48.856;9.088;2024-03-25T01:39:20;97155.69;;;4.10;97.16
42601;BME280;28229;48.856;9.088;2024-03-25T01:41:46;97160.50;;;4.13;97.29
42601;BME280;28229;48.856;9.088;2024-03-25T01:44:13;97154.91;;;4.09;97.80
42601;BME280;28229;48.856;9.088;2024-03-25T01:46:39;97164.94;;;4.12;98.08
42601;BME280;28229;48.856;9.088;2024-03-25T01:49:06;97158.13;;;4.18;97.81
42601;BME280;28229;48.856;9.088;2024-03-25T01:51:33;97162.97;;;4.21;98.45
42601;BME280;28229;48.856;9.088;2024-03-25T01:54:00;97166.50;;;4.13;98.35
42601;BME280;28229;48.856;9.088;2024-03-25T01:56:27;97164.94;;;4.12;98.08
42601;BME280;28229;48.856;9.088;2024-03-25T01:58:54;97157.91;;;4.13;97.75
42601;BME280;28229;48.856;9.088;2024-03-25T02:01:21;97165.31;;;4.09;97.94
42601;BME280;28229;48.856;9.088;2024-03-25T02:03:48;97162.09;;;4.07;98.27
42601;BME280;28229;48.856;9.088;2024-03-25T02:06:16;97164.53;;;4.15;98.16
42601;BME280;28229;48.856;9.088;2024-03-25T02:08:44;97162.09;;;4.07;98.08
42601;BME280;28229;48.856;9.088;2024-03-25T02:11:10;97161.72;;;4.10;97.65
42601;BME280;28229;48.856;9.088;2024-03-25T02:13:38;97162.94;;;4.14;97.72
42601;BME280;28229;48.856;9.088;2024-03-25T02:16:05;97159.75;;;4.19;97.71
42601;BME280;28229;48.856;9.088;2024-03-25T02:18:31;97165.16;;;4.17;97.30
42601;BME280;28229;48.856;9.088;2024-03-25T02:20:58;97158.31;;;4.16;97.18
42601;BME280;28229;48.856;9.088;2024-03-25T02:23:25;97152.94;;;4.18;97.36
42601;BME280;28229;48.856;9.088;2024-03-25T02:25:52;97164.13;;;4.18;96.73
42601;BME280;28229;48.856;9.088;2024-03-25T02:28:19;97156.09;;;4.13;97.39
42601;BME280;28229;48.856;9.088;2024-03-25T02:30:45;97160.97;;;4.23;96.23
42601;BME280;28229;48.856;9.088;2024-03-25T02:33:11;97157.16;;;4.19;96.63
42601;BME280;28229;48.856;9.088;2024-03-25T02:35:39;97156.94;;;4.20;96.85
42601;BME280;28229;48.856;9.088;2024-03-25T02:38:06;97155.34;;;4.19;97.10
42601;BME280;28229;48.856;9.088;2024-03-25T02:40:33;97152.97;;;4.25;96.60
42601;BME280;28229;48.856;9.088;2024-03-25T02:42:59;97151.94;;;4.26;96.03
42601;BME280;28229;48.856;9.088;2024-03-25T02:45:25;97157.16;;;4.26;95.90
42601;BME280;28229;48.856;9.088;2024-03-25T02:47:52;97151.56;;;4.29;96.00
42601;BME280;28229;48.856;9.088;2024-03-25T02:50:18;97148.19;;;4.35;95.34
42601;BME280;28229;48.856;9.088;2024-03-25T02:52:44;97157.38;;;4.31;95.75
42601;BME280;28229;48.856;9.088;2024-03-25T02:55:10;97150.56;;;4.30;95.94
42601;BME280;28229;48.856;9.088;2024-03-25T02:57:36;97156.38;;;4.32;95.49
42601;BME280;28229;48.856;9.088;2024-03-25T03:00:02;97155.56;;;4.25;95.45
42601;BME280;28229;48.856;9.088;2024-03-25T03:02:29;97153.94;;;4.24;96.06
42601;BME280;28229;48.856;9.088;2024-03-25T03:04:55;97154.53;;;4.26;96.15
42601;BME280;28229;48.856;9.088;2024-03-25T03:07:21;97149.75;;;4.29;96.04
42601;BME280;28229;48.856;9.088;2024-03-25T03:09:48;97157.38;;;4.31;95.79
42601;BME280;28229;48.856;9.088;2024-03-25T03:12:14;97158.75;;;4.27;96.17
42601;BME280;28229;48.856;9.088;2024-03-25T03:14:40;97159.78;;;4.32;96.11
42601;BME280;28229;48.856;9.088;2024-03-25T03:17:06;97160.56;;;4.33;95.98
42601;BME280;28229;48.856;9.088;2024-03-25T03:19:32;97156.56;;;4.30;96.10
42601;BME280;28229;48.856;9.088;2024-03-25T03:22:02;97157.34;;;4.24;96.38
42601;BME280;28229;48.856;9.088;2024-03-25T03:24:28;97153.56;;;4.27;96.26
42601;BME280;28229;48.856;9.088;2024-03-25T03:26:54;97148.16;;;4.28;96.31
42601;BME280;28229;48.856;9.088;2024-03-25T03:29:20;97149.34;;;4.26;95.93
42601;BME280;28229;48.856;9.088;2024-03-25T03:31:47;97144.72;;;4.28;95.95
42601;BME280;28229;48.856;9.088;2024-03-25T03:34:13;97141.72;;;4.24;96.19
42601;BME280;28229;48.856;9.088;2024-03-25T03:36:39;97140.94;;;4.30;95.64
42601;BME280;28229;48.856;9.088;2024-03-25T03:39:06;97145.38;;;4.30;95.90
42601;BME280;28229;48.856;9.088;2024-03-25T03:41:35;97151.38;;;4.30;95.49
42601;BME280;28229;48.856;9.088;2024-03-25T03:44:02;97144.53;;;4.23;96.13
42601;BME280;28229;48.856;9.088;2024-03-25T03:46:28;97147.75;;;4.25;95.56
42601;BME280;28229;48.856;9.088;2024-03-25T03:48:55;97153.34;;;4.22;95.65
42601;BME280;28229;48.856;9.088;2024-03-25T03:51:21;97149.75;;;4.23;96.08
42601;BME280;28229;48.856;9.088;2024-03-25T03:53:47;97149.75;;;4.23;95.78
42601;BME280;28229;48.856;9.088;2024-03-25T03:56:13;97152.91;;;4.11;96.00
42601;BME280;28229;48.856;9.088;2024-03-25T03:58:39;97150.47;;;4.10;96.12
42601;BME280;28229;48.856;9.088;2024-03-25T04:01:14;97158.72;;;4.13;96.27
42601;BME280;28229;48.856;9.088;2024-03-25T04:03:40;97158.72;;;4.13;96.00
42601;BME280;28229;48.856;9.088;2024-03-25T04:06:11;97165.34;;;4.16;95.95
42601;BME280;28229;48.856;9.088;2024-03-25T04:08:41;97166.94;;;4.10;95.97
42601;BME280;28229;48.856;9.088;2024-03-25T04:11:07;97172.91;;;4.04;96.08
42601;BME280;28229;48.856;9.088;2024-03-25T04:13:34;97168.06;;;4.01;96.69
42601;BME280;28229;48.856;9.088;2024-03-25T04:16:04;97164.94;;;4.12;96.35
42601;BME280;28229;48.856;9.088;2024-03-25T04:18:32;97165.31;;;4.09;96.50
42601;BME280;28229;48.856;9.088;2024-03-25T04:20:59;97171.72;;;4.07;96.89
42601;BME280;28229;48.856;9.088;2024-03-25T04:23:26;97169.53;;;4.10;96.33
42601;BME280;28229;48.856;9.088;2024-03-25T04:25:53;97170.69;;;4.08;96.71
42601;BME280;28229;48.856;9.088;2024-03-25T04:28:19;97161.13;;;4.08;96.74
42601;BME280;28229;48.856;9.088;2024-03-25T04:30:53;97162.72;;;4.09;96.75
42601;BME280;28229;48.856;9.088;2024-03-25T04:33:19;97160.88;;;4.03;97.04
42601;BME280;28229;48.856;9.088;2024-03-25T04:35:46;97147.06;;;3.96;97.78
42601;BME280;28229;48.856;9.088;2024-03-25T04:38:15;97151.25;;;3.97;97.66
42601;BME280;28229;48.856;9.088;2024-03-25T04:40:42;97151.06;;;3.98;97.92
42601;BME280;28229;48.856;9.088;2024-03-25T04:43:10;97154.06;;;4.02;97.55
42601;BME280;28229;48.856;9.088;2024-03-25T04:45:36;97150.84;;;4.00;97.76
42601;BME280;28229;48.856;9.088;2024-03-25T04:48:02;97153.28;;;4.02;98.15
42601;BME280;28229;48.856;9.088;2024-03-25T04:50:30;97163.28;;;3.98;98.61
42601;BME280;28229;48.856;9.088;2024-03-25T04:52:56;97164.06;;;3.98;98.50
42601;BME280;28229;48.856;9.088;2024-03-25T04:55:22;97164.44;;;3.89;98.72
42601;BME280;28229;48.856;9.088;2024-03-25T04:57:48;97174.00;;;3.81;99.40
42601;BME280;28229;48.856;9.088;2024-03-25T05:00:15;97167.19;;;3.80;99.54
42601;BME280;28229;48.856;9.088;2024-03-25T05:02:41;97167.75;;;3.76;99.49
42601;BME280;28229;48.856;9.088;2024-03-25T05:05:07;97159.94;;;3.69;99.72
42601;BME280;28229;48.856;9.088;2024-03-25T05:07:37;97160.47;;;3.58;100.00
42601;BME280;28229;48.856;9.088;2024-03-25T05:10:04;97167.75;;;3.69;99.51
42601;BME280;28229;48.856;9.088;2024-03-25T05:12:30;97157.84;;;3.58;99.49
42601;BME280;28229;48.856;9.088;2024-03-25T05:14:57;97166.66;;;3.57;99.85
42601;BME280;28229;48.856;9.088;2024-03-25T05:17:23;97174.97;;;3.46;100.00
42601;BME280;28229;48.856;9.088;2024-03-25T05:19:49;97172.78;;;3.42;100.00
42601;BME280;28229;48.856;9.088;2024-03-25T05:22:16;97168.75;;;3.40;100.00
42601;BME280;28229;48.856;9.088;2024-03-25T05:24:43;97174.56;;;3.42;100.00
42601;BME280;28229;48.856;9.088;2024-03-25T05:27:09;97180.53;;;3.36;100.00
42601;BME280;28229;48.856;9.088;2024-03-25T05:29:35;97177.75;;;3.37;100.00
42601;BME280;28229;48.856;9.088;2024-03-25T05:32:02;97184.72;;;3.37;100.00
42601;BME280;28229;48.856;9.088;2024-03-25T05:34:28;97185.69;;;3.29;100.00
42601;BME280;28229;48.856;9.088;2024-03-25T05:36:55;97180.00;;;3.19;100.00
42601;BME280;28229;48.856;9.088;2024-03-25T05:39:21;97182.59;;;3.19;100.00
42601;BME280;28229;48.856;9.088;2024-03-25T05:41:48;97184.41;;;3.18;100.00
42601;BME280;28229;48.856;9.088;2024-03-25T05:44:15;97189.16;;;3.15;100.00
42601;BME280;28229;48.856;9.088;2024-03-25T05:46:41;97188.00;;;3.17;100.00
42601;BME280;28229;48.856;9.088;2024-03-25T05:49:07;97191.63;;;3.23;100.00
42601;BME280;28229;48.856;9.088;2024-03-25T05:51:33;97185.19;;;3.19;100.00
42601;BME280;28229;48.856;9.088;2024-03-25T05:54:00;97198.44;;;3.24;100.00
42601;BME280;28229;48.856;9.088;2024-03-25T05:56:26;97193.22;;;3.24;100.00
42601;BME280;28229;48.856;9.088;2024-03-25T05:58:57;97192.44;;;3.23;100.00
42601;BME280;28229;48.856;9.088;2024-03-25T06:01:23;97189.84;;;3.23;100.00
42601;BME280;28229;48.856;9.088;2024-03-25T06:03:49;97188.84;;;3.24;100.00
42601;BME280;28229;48.856;9.088;2024-03-25T06:06:15;97188.88;;;3.31;100.00
42601;BME280;28229;48.856;9.088;2024-03-25T06:08:41;97185.69;;;3.29;100.00
42601;BME280;28229;48.856;9.088;2024-03-25T06:11:10;97194.13;;;3.38;100.00
42601;BME280;28229;48.856;9.088;2024-03-25T06:13:36;97193.72;;;3.34;100.00
42601;BME280;28229;48.856;9.088;2024-03-25T06:16:02;97193.34;;;3.37;100.00
42601;BME280;28229;48.856;9.088;2024-03-25T06:18:28;97191.34;;;3.39;100.00
42601;BME280;28229;48.856;9.088;2024-03-25T06:20:54;97189.00;;;3.45;100.00
42601;BME280;28229;48.856;9.088;2024-03-25T06:23:23;97184.25;;;3.55;100.00
42601;BME280;28229;48.856;9.088;2024-03-25T06:25:50;97191.06;;;3.56;100.00
42601;BME280;28229;48.856;9.088;2024-03-25T06:28:16;97192.91;;;3.62;100.00
42601;BME280;28229;48.856;9.088;2024-03-25T06:30:42;97188.91;;;3.66;100.00
42601;BME280;28229;48.856;9.088;2024-03-25T06:33:27;97187.34;;;3.72;100.00
42601;BME280;28229;48.856;9.088;2024-03-25T06:36:11;97190.41;;;3.82;100.00
42601;BME280;28229;48.856;9.088;2024-03-25T06:38:38;97197.25;;;3.90;100.00
42601;BME280;28229;48.856;9.088;2024-03-25T06:41:04;97194.50;;;3.98;100.00
42601;BME280;28229;48.856;9.088;2024-03-25T06:43:30;97194.53;;;4.11;100.00
42601;BME280;28229;48.856;9.088;2024-03-25T06:45:56;97203.00;;;4.20;100.00
42601;BME280;28229;48.856;9.088;2024-03-25T06:48:22;97197.00;;;4.19;100.00
42601;BME280;28229;48.856;9.088;2024-03-25T06:50:52;97195.84;;;4.35;100.00
42601;BME280;28229;48.856;9.088;2024-03-25T06:53:19;97199.47;;;4.41;100.00
42601;BME280;28229;48.856;9.088;2024-03-25T06:56:00;97201.91;;;4.49;100.00
42601;BME280;28229;48.856;9.088;2024-03-25T06:58:27;97213.97;;;4.64;100.00
42601;BME280;28229;48.856;9.088;2024-03-25T07:01:03;97204.78;;;4.74;99.59
42601;BME280;28229;48.856;9.088;2024-03-25T07:03:29;97206.78;;;4.86;98.49
42601;BME280;28229;48.856;9.088;2024-03-25T07:05:55;97211.19;;;4.92;98.27
42601;BME280;28229;48.856;9.088;2024-03-25T07:08:23;97215.22;;;5.34;100.00
42601;BME280;28229;48.856;9.088;2024-03-25T07:10:49;97225.88;;;5.40;96.17
42601;BME280;28229;48.856;9.088;2024-03-25T07:13:15;97213.63;;;5.33;94.77
42601;BME280;28229;48.856;9.088;2024-03-25T07:15:43;97214.25;;;5.36;93.74
42601;BME280;28229;48.856;9.088;2024-03-25T07:18:09;97218.66;;;5.28;93.69
42601;BME280;28229;48.856;9.088;2024-03-25T07:20:44;97216.25;;;5.33;92.08
42601;BME280;28229;48.856;9.088;2024-03-25T07:23:11;97216.03;;;5.42;92.43
42601;BME280;28229;48.856;9.088;2024-03-25T07:25:37;97212.59;;;5.61;91.78
42601;BME280;28229;48.856;9.088;2024-03-25T07:28:04;97205.94;;;5.85;91.90
42601;BME280;28229;48.856;9.088;2024-03-25T07:30:30;97202.31;;;6.00;89.87
42601;BME280;28229;48.856;9.088;2024-03-25T07:32:57;97186.97;;;6.23;90.64
42601;BME280;28229;48.856;9.088;2024-03-25T07:35:24;97207.44;;;6.33;88.63
42601;BME280;28229;48.856;9.088;2024-03-25T07:37:51;97198.75;;;6.39;86.92
42601;BME280;28229;48.856;9.088;2024-03-25T07:40:21;97196.28;;;6.51;86.41
42601;BME280;28229;48.856;9.088;2024-03-25T07:42:48;97200.78;;;6.76;86.01
42601;BME280;28229;48.856;9.088;2024-03-25T07:45:15;97197.81;;;6.97;85.07
42601;BME280;28229;48.856;9.088;2024-03-25T07:47:41;97195.31;;;7.09;79.06
42601;BME280;28229;48.856;9.088;2024-03-25T07:50:09;97188.91;;;7.05;71.46
42601;BME280;28229;48.856;9.088;2024-03-25T07:52:35;97192.06;;;7.14;72.27
42601;BME280;28229;48.856;9.088;2024-03-25T07:55:09;97186.34;;;7.23;71.88
42601;BME280;28229;48.856;9.088;2024-03-25T07:57:35;97197.03;;;7.22;68.89
42601;BME280;28229;48.856;9.088;2024-03-25T08:00:02;97194.88;;;7.12;69.10
42601;BME280;28229;48.856;9.088;2024-03-25T08:02:38;97202.94;;;7.11;70.12
42601;BME280;28229;48.856;9.088;2024-03-25T08:05:05;97205.34;;;7.12;68.73
42601;BME280;28229;48.856;9.088;2024-03-25T08:07:32;97195.78;;;7.24;68.74
42601;BME280;28229;48.856;9.088;2024-03-25T08:09:59;97199.56;;;7.29;67.91
42601;BME280;28229;48.856;9.088;2024-03-25T08:12:25;97198.19;;;7.51;67.37
42601;BME280;28229;48.856;9.088;2024-03-25T08:14:51;97199.59;;;7.72;65.86
42601;BME280;28229;48.856;9.088;2024-03-25T08:17:17;97199.03;;;7.89;65.74
42601;BME280;28229;48.856;9.088;2024-03-25T08:19:43;97196.75;;;8.11;63.57
42601;BME280;28229;48.856;9.088;2024-03-25T08:22:09;97192.09;;;8.31;63.96
42601;BME280;28229;48.856;9.088;2024-03-25T08:24:35;97190.84;;;8.34;61.92
42601;BME280;28229;48.856;9.088;2024-03-25T08:27:02;97185.53;;;8.41;62.38
42601;BME280;28229;48.856;9.088;2024-03-25T08:29:28;97184.34;;;8.43;63.51
42601;BME280;28229;48.856;9.088;2024-03-25T08:31:55;97179.09;;;8.43;60.20
42601;BME280;28229;48.856;9.088;2024-03-25T08:34:21;97177.47;;;8.42;58.94
42601;BME280;28229;48.856;9.088;2024-03-25T08:36:47;97173.91;;;8.36;59.00
42601;BME280;28229;48.856;9.088;2024-03-25T08:39:14;97171.81;;;8.45;62.00
42601;BME280;28229;48.856;9.088;2024-03-25T08:41:40;97170.31;;;8.80;63.23
42601;BME280;28229;48.856;9.088;2024-03-25T08:44:06;97176.88;;;9.12;61.45
42601;BME280;28229;48.856;9.088;2024-03-25T08:46:33;97171.06;;;9.46;60.85
42601;BME280;28229;48.856;9.088;2024-03-25T08:49:01;97179.97;;;9.57;56.34
42601;BME280;28229;48.856;9.088;2024-03-25T08:51:28;97172.31;;;9.67;57.02
42601;BME280;28229;48.856;9.088;2024-03-25T08:53:55;97169.22;;;9.94;58.15
42601;BME280;28229;48.856;9.088;2024-03-25T08:56:21;97169.16;;;10.17;56.96
42601;BME280;28229;48.856;9.088;2024-03-25T08:58:48;97172.53;;;10.29;58.67
42601;BME280;28229;48.856;9.088;2024-03-25T09:01:15;97161.69;;;10.38;55.97
42601;BME280;28229;48.856;9.088;2024-03-25T09:03:43;97160.09;;;10.37;55.21
42601;BME280;28229;48.856;9.088;2024-03-25T09:06:10;97164.66;;;10.29;55.14
42601;BME280;28229;48.856;9.088;2024-03-25T09:08:36;97149.84;;;10.23;55.26
42601;BME280;28229;48.856;9.088;2024-03-25T09:11:22;97154.38;;;10.28;56.18
42601;BME280;28229;48.856;9.088;2024-03-25T09:13:50;97151.50;;;10.41;52.76
42601;BME280;28229;48.856;9.088;2024-03-25T09:16:17;97149.06;;;10.52;52.16
42601;BME280;28229;48.856;9.088;2024-03-25T09:18:43;97150.28;;;10.61;54.56
42601;BME280;28229;48.856;9.088;2024-03-25T09:21:09;97154.72;;;10.60;52.26
42601;BME280;28229;48.856;9.088;2024-03-25T09:23:35;97155.56;;;10.78;52.20
42601;BME280;28229;48.856;9.088;2024-03-25T09:26:01;97158.75;;;10.80;49.74
42601;BME280;28229;48.856;9.088;2024-03-25T09:28:27;97153.97;;;10.77;50.08
42601;BME280;28229;48.856;9.088;2024-03-25T09:30:54;97154.03;;;10.82;49.92
42601;BME280;28229;48.856;9.088;2024-03-25T09:33:20;97139.94;;;11.05;50.07
42601;BME280;28229;48.856;9.088;2024-03-25T09:35:47;97131.56;;;11.25;50.28
42601;BME280;28229;48.856;9.088;2024-03-25T09:38:13;97129.38;;;11.39;50.44
42601;BME280;28229;48.856;9.088;2024-03-25T09:40:40;97131.34;;;11.27;48.63
42601;BME280;28229;48.856;9.088;2024-03-25T09:43:13;97121.06;;;11.64;51.45
42601;BME280;28229;48.856;9.088;2024-03-25T09:45:44;97109.97;;;11.84;47.62
42601;BME280;28229;48.856;9.088;2024-03-25T09:48:15;97112.50;;;11.96;48.77
42601;BME280;28229;48.856;9.088;2024-03-25T09:50:43;97115.72;;;12.25;47.61
42601;BME280;28229;48.856;9.088;2024-03-25T09:53:09;97115.84;;;12.13;46.71
42601;BME280;28229;48.856;9.088;2024-03-25T09:55:35;97108.53;;;12.21;46.99
42601;BME280;28229;48.856;9.088;2024-03-25T09:58:03;97096.81;;;12.33;47.49
42601;BME280;28229;48.856;9.088;2024-03-25T10:00:30;97098.47;;;12.40;48.43
42601;BME280;28229;48.856;9.088;2024-03-25T10:02:56;97095.34;;;12.21;47.55
42601;BME280;28229;48.856;9.088;2024-03-25T10:05:22;97095.03;;;12.39;49.87
42601;BME280;28229;48.856;9.088;2024-03-25T10:07:49;97084.16;;;12.63;49.40
42601;BME280;28229;48.856;9.088;2024-03-25T10:10:19;97084.25;;;12.73;45.12
42601;BME280;28229;48.856;9.088;2024-03-25T10:12:46;97079.38;;;12.60;46.82
42601;BME280;28229;48.856;9.088;2024-03-25T10:15:18;97072.72;;;12.84;47.78
42601;BME280;28229;48.856;9.088;2024-03-25T10:17:44;97072.84;;;13.00;47.10
42601;BME280;28229;48.856;9.088;2024-03-25T10:20:14;97062.25;;;13.32;45.10
42601;BME280;28229;48.856;9.088;2024-03-25T10:22:44;97063.44;;;13.62;44.94
42601;BME280;28229;48.856;9.088;2024-03-25T10:25:28;97054.00;;;13.86;45.22
42601;BME280;28229;48.856;9.088;2024-03-25T10:30:21;97051.97;;;14.14;43.66
42601;BME280;28229;48.856;9.088;2024-03-25T10:33:17;97041.66;;;14.18;41.41
42601;BME280;28229;48.856;9.088;2024-03-25T10:35:44;97042.00;;;13.53;40.91
42601;BME280;28229;48.856;9.088;2024-03-25T10:38:14;97044.22;;;13.82;43.35
42601;BME280;28229;48.856;9.088;2024-03-25T10:40:44;97043.25;;;14.24;42.18
42601;BME280;28229;48.856;9.088;2024-03-25T10:43:11;97041.66;;;14.13;41.25
42601;BME280;28229;48.856;9.088;2024-03-25T10:45:45;97031.63;;;14.35;43.51
42601;BME280;28229;48.856;9.088;2024-03-25T10:48:37;97024.75;;;14.39;39.43
42601;BME280;28229;48.856;9.088;2024-03-25T10:51:06;97031.38;;;14.37;41.33
42601;BME280;28229;48.856;9.088;2024-03-25T10:53:35;97032.19;;;14.58;40.57
42601;BME280;28229;48.856;9.088;2024-03-25T10:56:03;97029.03;;;14.87;41.29
42601;BME280;28229;48.856;9.088;2024-03-25T10:58:33;97029.53;;;14.58;39.58
42601;BME280;28229;48.856;9.088;2024-03-25T11:01:00;97019.22;;;14.72;39.89
42601;BME280;28229;48.856;9.088;2024-03-25T11:03:27;97024.78;;;14.70;38.24
42601;BME280;28229;48.856;9.088;2024-03-25T11:05:54;97022.13;;;14.91;38.37
42601;BME280;28229;48.856;9.088;2024-03-25T11:08:20;97017.34;;;14.82;39.72
42601;BME280;28229;48.856;9.088;2024-03-25T11:10:47;97007.53;;;15.03;37.62
42601;BME280;28229;48.856;9.088;2024-03-25T11:13:14;97006.75;;;14.93;38.59
42601;BME280;28229;48.856;9.088;2024-03-25T11:15:43;96998.72;;;15.18;38.38
42601;BME280;28229;48.856;9.088;2024-03-25T11:18:15;96990.22;;;15.37;38.00
42601;BME280;28229;48.856;9.088;2024-03-25T11:20:42;96985.97;;;15.36;38.95
42601;BME280;28229;48.856;9.088;2024-03-25T11:23:13;96984.44;;;15.19;39.15
42601;BME280;28229;48.856;9.088;2024-03-25T11:25:41;96981.75;;;15.35;37.97
42601;BME280;28229;48.856;9.088;2024-03-25T11:28:08;96981.25;;;15.28;38.61
42601;BME280;28229;48.856;9.088;2024-03-25T11:30:36;96977.13;;;15.56;39.44
42601;BME280;28229;48.856;9.088;2024-03-25T11:33:03;96969.53;;;15.34;39.82
42601;BME280;28229;48.856;9.088;2024-03-25T11:35:38;96965.94;;;15.69;38.06
42601;BME280;28229;48.856;9.088;2024-03-25T11:38:05;96960.03;;;15.83;38.15
42601;BME280;28229;48.856;9.088;2024-03-25T11:40:31;96954.47;;;15.84;36.73
42601;BME280;28229;48.856;9.088;2024-03-25T11:42:58;96953.84;;;16.03;38.20
42601;BME280;28229;48.856;9.088;2024-03-25T11:45:24;96947.97;;;16.06;35.18
42601;BME280;28229;48.856;9.088;2024-03-25T11:47:51;96936.75;;;16.14;35.59
42601;BME280;28229;48.856;9.088;2024-03-25T11:50:18;96933.59;;;16.12;38.45
42601;BME280;28229;48.856;9.088;2024-03-25T11:52:45;96928.41;;;15.96;36.14
42601;BME280;28229;48.856;9.088;2024-03-25T11:55:16;96919.06;;;16.39;35.69
42601;BME280;28229;48.856;9.088;2024-03-25T11:57:43;96917.88;;;16.21;35.68
42601;BME280;28229;48.856;9.088;2024-03-25T12:00:09;96915.22;;;16.21;35.52
42601;BME280;28229;48.856;9.088;2024-03-25T12:02:44;96917.38;;;16.48;35.40
42601;BME280;28229;48.856;9.088;2024-03-25T12:05:13;96909.31;;;16.58;34.43
42601;BME280;28229;48.856;9.088;2024-03-25T12:07:39;96896.50;;;16.65;34.43
42601;BME280;28229;48.856;9.088;2024-03-25T12:10:06;96903.13;;;16.63;34.93
42601;BME280;28229;48.856;9.088;2024-03-25T12:12:51;96897.47;;;16.99;35.71
42601;BME280;28229;48.856;9.088;2024-03-25T12:15:20;96890.72;;;16.58;33.86
42601;BME280;28229;48.856;9.088;2024-03-25T12:17:47;96889.31;;;16.42;34.15
42601;BME280;28229;48.856;9.088;2024-03-25T12:20:13;96886.59;;;16.17;34.65
42601;BME280;28229;48.856;9.088;2024-03-25T12:22:43;96883.66;;;16.19;35.46
42601;BME280;28229;48.856;9.088;2024-03-25T12:25:10;96880.53;;;16.12;34.67
42601;BME280;28229;48.856;9.088;2024-03-25T12:27:38;96870.63;;;16.23;34.42
42601;BME280;28229;48.856;9.088;2024-03-25T12:30:08;96858.63;;;16.79;35.53
42601;BME280;28229;48.856;9.088;2024-03-25T12:32:43;96854.84;;;17.28;33.08
42601;BME280;28229;48.856;9.088;2024-03-25T12:35:14;96844.53;;;17.45;32.85
42601;BME280;28229;48.856;9.088;2024-03-25T12:37:46;96847.47;;;17.44;32.45
42601;BME280;28229;48.856;9.088;2024-03-25T12:40:26;96839.19;;;17.26;33.21
42601;BME280;28229;48.856;9.088;2024-03-25T12:42:53;96833.94;;;17.21;31.39
42601;BME280;28229;48.856;9.088;2024-03-25T12:45:22;96827.53;;;17.03;32.15
42601;BME280;28229;48.856;9.088;2024-03-25T12:47:50;96827.69;;;17.12;31.62
42601;BME280;28229;48.856;9.088;2024-03-25T12:50:16;96818.63;;;17.32;32.26
42601;BME280;28229;48.856;9.088;2024-03-25T12:52:42;96813.25;;;17.18;33.44
42601;BME280;28229;48.856;9.088;2024-03-25T12:55:08;96804.06;;;16.67;31.93
42601;BME280;28229;48.856;9.088;2024-03-25T12:57:35;96798.97;;;16.71;33.94
42601;BME280;28229;48.856;9.088;2024-03-25T13:00:02;96792.13;;;16.89;33.89
42601;BME280;28229;48.856;9.088;2024-03-25T13:02:30;96801.47;;;16.62;33.34
42601;BME280;28229;48.856;9.088;2024-03-25T13:04:57;96796.94;;;16.39;33.35
42601;BME280;28229;48.856;9.088;2024-03-25T13:07:23;96795.75;;;16.50;34.67
42601;BME280;28229;48.856;9.088;2024-03-25T13:09:49;96784.75;;;16.81;33.90